sensor_id;sensor_type;location;lat;lon;timestamp;P1;durP1;ratioP1;P2;durP2;ratioP2
43297;SDS011;28892;55.640;37.532;2023-03-01T00:00:40;1.83;;;0.90;;
43297;SDS011;28892;55.640;37.532;2023-03-01T00:03:06;2.17;;;0.80;;
43297;SDS011;28892;55.640;37.532;2023-03-01T00:05:32;0.93;;;0.77;;
43297;SDS011;28892;55.640;37.532;2023-03-01T00:07:58;3.10;;;0.90;;
43297;SDS011;28892;55.640;37.532;2023-03-01T00:10:24;2.93;;;0.80;;
43297;SDS011;28892;55.640;37.532;2023-03-01T00:12:49;2.53;;;0.83;;
43297;SDS011;28892;55.640;37.532;2023-03-01T00:15:15;2.30;;;0.90;;
43297;SDS011;28892;55.640;37.532;2023-03-01T00:17:41;1.37;;;0.70;;
43297;SDS011;28892;55.640;37.532;2023-03-01T00:20:07;3.23;;;0.90;;
43297;SDS011;28892;55.640;37.532;2023-03-01T00:22:35;2.87;;;1.07;;
43297;SDS011;28892;55.640;37.532;2023-03-01T00:25:02;1.60;;;1.00;;
43297;SDS011;28892;55.640;37.532;2023-03-01T00:27:29;1.33;;;0.83;;
43297;SDS011;28892;55.640;37.532;2023-03-01T00:29:54;2.13;;;0.80;;
43297;SDS011;28892;55.640;37.532;2023-03-01T00:32:20;2.00;;;0.90;;
43297;SDS011;28892;55.640;37.532;2023-03-01T00:34:46;3.03;;;0.80;;
43297;SDS011;28892;55.640;37.532;2023-03-01T00:37:20;1.98;;;0.82;;
43297;SDS011;28892;55.640;37.532;2023-03-01T00:39:49;2.00;;;1.10;;
43297;SDS011;28892;55.640;37.532;2023-03-01T00:42:15;2.20;;;0.80;;
43297;SDS011;28892;55.640;37.532;2023-03-01T00:44:41;3.13;;;1.27;;
43297;SDS011;28892;55.640;37.532;2023-03-01T00:47:07;0.80;;;0.70;;
43297;SDS011;28892;55.640;37.532;2023-03-01T00:49:32;3.33;;;0.90;;
43297;SDS011;28892;55.640;37.532;2023-03-01T00:51:58;0.80;;;0.80;;
43297;SDS011;28892;55.640;37.532;2023-03-01T00:54:24;1.87;;;0.50;;
43297;SDS011;28892;55.640;37.532;2023-03-01T00:56:49;2.80;;;0.87;;
43297;SDS011;28892;55.640;37.532;2023-03-01T00:59:15;3.90;;;1.10;;
43297;SDS011;28892;55.640;37.532;2023-03-01T01:01:41;0.70;;;0.37;;
43297;SDS011;28892;55.640;37.532;2023-03-01T01:04:08;4.30;;;0.80;;
43297;SDS011;28892;55.640;37.532;2023-03-01T01:06:40;2.13;;;0.83;;
43297;SDS011;28892;55.640;37.532;2023-03-01T01:09:11;0.93;;;0.73;;
43297;SDS011;28892;55.640;37.532;2023-03-01T01:11:51;1.03;;;0.70;;
43297;SDS011;28892;55.640;37.532;2023-03-01T01:14:18;0.77;;;0.63;;
43297;SDS011;28892;55.640;37.532;2023-03-01T01:16:44;2.03;;;1.00;;
43297;SDS011;28892;55.640;37.532;2023-03-01T01:19:13;3.30;;;0.70;;
43297;SDS011;28892;55.640;37.532;2023-03-01T01:21:40;0.80;;;0.70;;
43297;SDS011;28892;55.640;37.532;2023-03-01T01:24:08;1.10;;;0.60;;
43297;SDS011;28892;55.640;37.532;2023-03-01T01:26:34;4.43;;;0.70;;
43297;SDS011;28892;55.640;37.532;2023-03-01T01:29:00;4.37;;;1.83;;
43297;SDS011;28892;55.640;37.532;2023-03-01T01:31:27;0.50;;;0.50;;
43297;SDS011;28892;55.640;37.532;2023-03-01T01:33:54;0.70;;;0.60;;
43297;SDS011;28892;55.640;37.532;2023-03-01T01:36:20;1.10;;;0.90;;
43297;SDS011;28892;55.640;37.532;2023-03-01T01:38:47;1.50;;;0.93;;
43297;SDS011;28892;55.640;37.532;2023-03-01T01:41:15;1.90;;;0.50;;
43297;SDS011;28892;55.640;37.532;2023-03-01T01:43:46;0.80;;;0.53;;
43297;SDS011;28892;55.640;37.532;2023-03-01T01:49:05;2.67;;;0.90;;
43297;SDS011;28892;55.640;37.532;2023-03-01T01:51:42;2.42;;;0.95;;
43297;SDS011;28892;55.640;37.532;2023-03-01T01:54:17;2.17;;;0.70;;
43297;SDS011;28892;55.640;37.532;2023-03-01T01:57:00;1.10;;;1.00;;
43297;SDS011;28892;55.640;37.532;2023-03-01T01:59:29;1.33;;;0.70;;
43297;SDS011;28892;55.640;37.532;2023-03-01T02:01:57;1.80;;;1.47;;
43297;SDS011;28892;55.640;37.532;2023-03-01T02:04:28;3.63;;;0.90;;
43297;SDS011;28892;55.640;37.532;2023-03-01T02:06:59;0.93;;;0.60;;
43297;SDS011;28892;55.640;37.532;2023-03-01T02:09:30;1.07;;;0.67;;
43297;SDS011;28892;55.640;37.532;2023-03-01T02:11:57;2.20;;;0.67;;
43297;SDS011;28892;55.640;37.532;2023-03-01T02:14:24;1.73;;;0.80;;
43297;SDS011;28892;55.640;37.532;2023-03-01T02:16:49;2.00;;;0.70;;
43297;SDS011;28892;55.640;37.532;2023-03-01T02:22:10;2.13;;;1.03;;
43297;SDS011;28892;55.640;37.532;2023-03-01T02:30:17;1.90;;;1.13;;
43297;SDS011;28892;55.640;37.532;2023-03-01T02:32:44;4.37;;;0.80;;
43297;SDS011;28892;55.640;37.532;2023-03-01T02:35:14;2.13;;;1.20;;
43297;SDS011;28892;55.640;37.532;2023-03-01T02:37:43;5.60;;;1.63;;
43297;SDS011;28892;55.640;37.532;2023-03-01T02:40:17;1.50;;;1.00;;
43297;SDS011;28892;55.640;37.532;2023-03-01T02:42:51;7.57;;;1.30;;
43297;SDS011;28892;55.640;37.532;2023-03-01T02:45:19;2.10;;;1.02;;
43297;SDS011;28892;55.640;37.532;2023-03-01T02:47:46;1.50;;;0.97;;
43297;SDS011;28892;55.640;37.532;2023-03-01T02:50:19;1.67;;;0.80;;
43297;SDS011;28892;55.640;37.532;2023-03-01T02:55:40;1.10;;;1.00;;
43297;SDS011;28892;55.640;37.532;2023-03-01T02:58:06;1.23;;;0.90;;
43297;SDS011;28892;55.640;37.532;2023-03-01T03:00:37;6.03;;;1.40;;
43297;SDS011;28892;55.640;37.532;2023-03-01T03:03:06;0.60;;;0.50;;
43297;SDS011;28892;55.640;37.532;2023-03-01T03:05:32;2.50;;;1.17;;
43297;SDS011;28892;55.640;37.532;2023-03-01T03:08:00;3.43;;;1.20;;
43297;SDS011;28892;55.640;37.532;2023-03-01T03:10:33;2.00;;;1.15;;
43297;SDS011;28892;55.640;37.532;2023-03-01T03:13:03;2.93;;;1.33;;
43297;SDS011;28892;55.640;37.532;2023-03-01T03:15:31;4.03;;;1.10;;
43297;SDS011;28892;55.640;37.532;2023-03-01T03:17:57;6.20;;;1.30;;
43297;SDS011;28892;55.640;37.532;2023-03-01T03:20:24;1.50;;;1.00;;
43297;SDS011;28892;55.640;37.532;2023-03-01T03:22:54;1.77;;;0.80;;
43297;SDS011;28892;55.640;37.532;2023-03-01T03:25:21;2.13;;;1.30;;
43297;SDS011;28892;55.640;37.532;2023-03-01T03:27:50;2.17;;;1.20;;
43297;SDS011;28892;55.640;37.532;2023-03-01T03:30:23;1.67;;;1.02;;
43297;SDS011;28892;55.640;37.532;2023-03-01T03:32:51;5.63;;;1.40;;
43297;SDS011;28892;55.640;37.532;2023-03-01T03:35:18;2.93;;;1.23;;
43297;SDS011;28892;55.640;37.532;2023-03-01T03:37:52;2.80;;;1.23;;
43297;SDS011;28892;55.640;37.532;2023-03-01T03:40:28;3.07;;;1.00;;
43297;SDS011;28892;55.640;37.532;2023-03-01T03:43:01;0.83;;;0.83;;
43297;SDS011;28892;55.640;37.532;2023-03-01T03:45:31;3.07;;;1.00;;
43297;SDS011;28892;55.640;37.532;2023-03-01T03:48:02;3.17;;;1.17;;
43297;SDS011;28892;55.640;37.532;2023-03-01T03:50:33;2.10;;;0.93;;
43297;SDS011;28892;55.640;37.532;2023-03-01T03:53:03;3.33;;;1.13;;
43297;SDS011;28892;55.640;37.532;2023-03-01T03:55:30;1.60;;;0.70;;
43297;SDS011;28892;55.640;37.532;2023-03-01T03:57:59;3.00;;;1.20;;
43297;SDS011;28892;55.640;37.532;2023-03-01T04:00:32;3.37;;;1.27;;
43297;SDS011;28892;55.640;37.532;2023-03-01T04:03:03;4.37;;;1.47;;
43297;SDS011;28892;55.640;37.532;2023-03-01T04:05:28;3.57;;;1.70;;
43297;SDS011;28892;55.640;37.532;2023-03-01T04:07:54;4.90;;;1.30;;
43297;SDS011;28892;55.640;37.532;2023-03-01T04:10:27;2.57;;;1.37;;
43297;SDS011;28892;55.640;37.532;2023-03-01T04:12:57;2.93;;;1.43;;
43297;SDS011;28892;55.640;37.532;2023-03-01T04:15:26;3.93;;;1.47;;
43297;SDS011;28892;55.640;37.532;2023-03-01T04:17:53;4.27;;;1.20;;
43297;SDS011;28892;55.640;37.532;2023-03-01T04:20:25;1.60;;;1.00;;
43297;SDS011;28892;55.640;37.532;2023-03-01T04:22:58;1.57;;;1.07;;
43297;SDS011;28892;55.640;37.532;2023-03-01T04:25:37;2.97;;;1.17;;
43297;SDS011;28892;55.640;37.532;2023-03-01T04:28:04;2.83;;;1.30;;
43297;SDS011;28892;55.640;37.532;2023-03-01T04:30:30;4.23;;;1.17;;
43297;SDS011;28892;55.640;37.532;2023-03-01T04:33:04;4.13;;;1.00;;
43297;SDS011;28892;55.640;37.532;2023-03-01T04:35:31;3.80;;;1.20;;
43297;SDS011;28892;55.640;37.532;2023-03-01T04:37:57;2.47;;;1.27;;
43297;SDS011;28892;55.640;37.532;2023-03-01T04:40:23;1.97;;;1.30;;
43297;SDS011;28892;55.640;37.532;2023-03-01T04:42:52;3.63;;;1.03;;
43297;SDS011;28892;55.640;37.532;2023-03-01T04:45:18;2.03;;;1.10;;
43297;SDS011;28892;55.640;37.532;2023-03-01T04:47:45;2.20;;;1.23;;
43297;SDS011;28892;55.640;37.532;2023-03-01T04:50:14;1.90;;;1.30;;
43297;SDS011;28892;55.640;37.532;2023-03-01T04:52:48;2.77;;;1.10;;
43297;SDS011;28892;55.640;37.532;2023-03-01T04:55:13;5.57;;;1.67;;
43297;SDS011;28892;55.640;37.532;2023-03-01T04:57:42;2.80;;;1.27;;
43297;SDS011;28892;55.640;37.532;2023-03-01T05:00:09;3.50;;;1.70;;
43297;SDS011;28892;55.640;37.532;2023-03-01T05:02:46;3.03;;;1.00;;
43297;SDS011;28892;55.640;37.532;2023-03-01T05:05:13;1.53;;;0.97;;
43297;SDS011;28892;55.640;37.532;2023-03-01T05:07:40;2.07;;;1.20;;
43297;SDS011;28892;55.640;37.532;2023-03-01T05:10:06;3.50;;;1.10;;
43297;SDS011;28892;55.640;37.532;2023-03-01T05:12:32;1.90;;;1.30;;
43297;SDS011;28892;55.640;37.532;2023-03-01T05:14:58;3.73;;;1.70;;
43297;SDS011;28892;55.640;37.532;2023-03-01T05:17:24;3.83;;;1.70;;
43297;SDS011;28892;55.640;37.532;2023-03-01T05:19:49;3.53;;;1.83;;
43297;SDS011;28892;55.640;37.532;2023-03-01T05:22:15;3.77;;;2.47;;
43297;SDS011;28892;55.640;37.532;2023-03-01T05:24:41;3.63;;;2.17;;
43297;SDS011;28892;55.640;37.532;2023-03-01T05:27:07;4.97;;;3.07;;
43297;SDS011;28892;55.640;37.532;2023-03-01T05:29:33;5.07;;;2.80;;
43297;SDS011;28892;55.640;37.532;2023-03-01T05:32:00;4.27;;;2.90;;
43297;SDS011;28892;55.640;37.532;2023-03-01T05:34:29;4.80;;;2.70;;
43297;SDS011;28892;55.640;37.532;2023-03-01T05:36:57;3.90;;;2.40;;
43297;SDS011;28892;55.640;37.532;2023-03-01T05:39:23;3.53;;;2.40;;
43297;SDS011;28892;55.640;37.532;2023-03-01T05:41:54;4.80;;;2.60;;
43297;SDS011;28892;55.640;37.532;2023-03-01T05:44:24;5.40;;;2.60;;
43297;SDS011;28892;55.640;37.532;2023-03-01T05:46:50;4.70;;;2.37;;
43297;SDS011;28892;55.640;37.532;2023-03-01T05:49:16;4.43;;;2.23;;
43297;SDS011;28892;55.640;37.532;2023-03-01T05:51:43;3.70;;;2.10;;
43297;SDS011;28892;55.640;37.532;2023-03-01T05:54:13;4.90;;;2.00;;
43297;SDS011;28892;55.640;37.532;2023-03-01T05:56:39;3.57;;;2.07;;
43297;SDS011;28892;55.640;37.532;2023-03-01T05:59:07;4.77;;;2.27;;
43297;SDS011;28892;55.640;37.532;2023-03-01T06:01:33;3.50;;;1.83;;
43297;SDS011;28892;55.640;37.532;2023-03-01T06:03:59;3.47;;;1.20;;
43297;SDS011;28892;55.640;37.532;2023-03-01T06:06:26;3.20;;;1.90;;
43297;SDS011;28892;55.640;37.532;2023-03-01T06:08:52;4.77;;;2.00;;
43297;SDS011;28892;55.640;37.532;2023-03-01T06:11:19;5.93;;;2.00;;
43297;SDS011;28892;55.640;37.532;2023-03-01T06:13:45;4.30;;;1.90;;
43297;SDS011;28892;55.640;37.532;2023-03-01T06:16:11;4.87;;;1.87;;
43297;SDS011;28892;55.640;37.532;2023-03-01T06:18:38;8.47;;;3.47;;
43297;SDS011;28892;55.640;37.532;2023-03-01T06:21:04;2.77;;;1.50;;
43297;SDS011;28892;55.640;37.532;2023-03-01T06:23:31;3.10;;;1.93;;
43297;SDS011;28892;55.640;37.532;2023-03-01T06:25:57;2.57;;;1.93;;
43297;SDS011;28892;55.640;37.532;2023-03-01T06:28:23;3.37;;;1.70;;
43297;SDS011;28892;55.640;37.532;2023-03-01T06:30:49;2.97;;;1.80;;
43297;SDS011;28892;55.640;37.532;2023-03-01T06:33:15;5.00;;;1.80;;
43297;SDS011;28892;55.640;37.532;2023-03-01T06:35:41;3.93;;;2.23;;
43297;SDS011;28892;55.640;37.532;2023-03-01T06:38:07;5.00;;;2.27;;
43297;SDS011;28892;55.640;37.532;2023-03-01T06:40:35;2.40;;;1.80;;
43297;SDS011;28892;55.640;37.532;2023-03-01T06:43:01;4.67;;;1.50;;
43297;SDS011;28892;55.640;37.532;2023-03-01T06:45:26;5.23;;;2.03;;
43297;SDS011;28892;55.640;37.532;2023-03-01T06:47:52;3.80;;;1.77;;
43297;SDS011;28892;55.640;37.532;2023-03-01T06:50:31;3.17;;;1.77;;
43297;SDS011;28892;55.640;37.532;2023-03-01T06:52:57;8.03;;;2.23;;
43297;SDS011;28892;55.640;37.532;2023-03-01T06:55:24;5.33;;;2.03;;
43297;SDS011;28892;55.640;37.532;2023-03-01T06:57:54;2.83;;;1.57;;
43297;SDS011;28892;55.640;37.532;2023-03-01T07:00:28;3.97;;;2.20;;
43297;SDS011;28892;55.640;37.532;2023-03-01T07:02:54;4.87;;;2.00;;
43297;SDS011;28892;55.640;37.532;2023-03-01T07:05:23;5.40;;;1.87;;
43297;SDS011;28892;55.640;37.532;2023-03-01T07:07:48;5.60;;;1.90;;
43297;SDS011;28892;55.640;37.532;2023-03-01T07:10:14;6.97;;;1.90;;
43297;SDS011;28892;55.640;37.532;2023-03-01T07:12:40;5.13;;;1.80;;
43297;SDS011;28892;55.640;37.532;2023-03-01T07:15:08;2.67;;;1.70;;
43297;SDS011;28892;55.640;37.532;2023-03-01T07:17:35;5.33;;;2.13;;
43297;SDS011;28892;55.640;37.532;2023-03-01T07:20:01;4.33;;;1.50;;
43297;SDS011;28892;55.640;37.532;2023-03-01T07:22:29;5.80;;;1.77;;
43297;SDS011;28892;55.640;37.532;2023-03-01T07:24:55;6.87;;;1.63;;
43297;SDS011;28892;55.640;37.532;2023-03-01T07:27:21;5.00;;;1.80;;
43297;SDS011;28892;55.640;37.532;2023-03-01T07:29:50;3.13;;;2.07;;
43297;SDS011;28892;55.640;37.532;2023-03-01T07:32:18;1.00;;;0.90;;
43297;SDS011;28892;55.640;37.532;2023-03-01T07:34:44;6.20;;;1.70;;
43297;SDS011;28892;55.640;37.532;2023-03-01T07:37:10;3.60;;;1.83;;
43297;SDS011;28892;55.640;37.532;2023-03-01T07:39:36;2.67;;;1.50;;
43297;SDS011;28892;55.640;37.532;2023-03-01T07:42:02;3.30;;;1.50;;
43297;SDS011;28892;55.640;37.532;2023-03-01T07:44:28;4.57;;;1.40;;
43297;SDS011;28892;55.640;37.532;2023-03-01T07:46:53;2.20;;;1.30;;
43297;SDS011;28892;55.640;37.532;2023-03-01T07:49:21;4.23;;;1.90;;
43297;SDS011;28892;55.640;37.532;2023-03-01T07:51:47;6.13;;;1.80;;
43297;SDS011;28892;55.640;37.532;2023-03-01T07:54:13;5.20;;;1.67;;
43297;SDS011;28892;55.640;37.532;2023-03-01T07:56:42;5.20;;;1.80;;
43297;SDS011;28892;55.640;37.532;2023-03-01T07:59:41;4.23;;;1.70;;
43297;SDS011;28892;55.640;37.532;2023-03-01T08:02:16;5.07;;;1.77;;
43297;SDS011;28892;55.640;37.532;2023-03-01T08:04:44;3.83;;;1.53;;
43297;SDS011;28892;55.640;37.532;2023-03-01T08:07:22;4.47;;;1.37;;
43297;SDS011;28892;55.640;37.532;2023-03-01T08:09:48;4.27;;;1.60;;
43297;SDS011;28892;55.640;37.532;2023-03-01T08:12:14;4.33;;;1.77;;
43297;SDS011;28892;55.640;37.532;2023-03-01T08:14:42;4.00;;;1.80;;
43297;SDS011;28892;55.640;37.532;2023-03-01T08:17:08;1.70;;;1.40;;
43297;SDS011;28892;55.640;37.532;2023-03-01T08:19:34;5.20;;;2.20;;
43297;SDS011;28892;55.640;37.532;2023-03-01T08:22:03;7.03;;;2.17;;
43297;SDS011;28892;55.640;37.532;2023-03-01T08:24:29;4.20;;;1.60;;
43297;SDS011;28892;55.640;37.532;2023-03-01T08:26:55;6.23;;;1.90;;
43297;SDS011;28892;55.640;37.532;2023-03-01T08:29:21;4.20;;;1.40;;
43297;SDS011;28892;55.640;37.532;2023-03-01T08:31:47;2.40;;;1.30;;
43297;SDS011;28892;55.640;37.532;2023-03-01T08:34:14;4.57;;;1.90;;
43297;SDS011;28892;55.640;37.532;2023-03-01T08:36:42;3.50;;;1.60;;
43297;SDS011;28892;55.640;37.532;2023-03-01T08:39:13;4.97;;;1.70;;
43297;SDS011;28892;55.640;37.532;2023-03-01T08:41:40;5.00;;;1.80;;
43297;SDS011;28892;55.640;37.532;2023-03-01T08:44:07;6.13;;;3.10;;
43297;SDS011;28892;55.640;37.532;2023-03-01T08:46:34;3.40;;;1.70;;
43297;SDS011;28892;55.640;37.532;2023-03-01T08:49:06;3.37;;;1.93;;
43297;SDS011;28892;55.640;37.532;2023-03-01T08:51:37;5.27;;;1.60;;
43297;SDS011;28892;55.640;37.532;2023-03-01T08:54:04;4.27;;;1.50;;
43297;SDS011;28892;55.640;37.532;2023-03-01T08:56:40;5.03;;;1.80;;
43297;SDS011;28892;55.640;37.532;2023-03-01T08:59:07;3.27;;;1.50;;
43297;SDS011;28892;55.640;37.532;2023-03-01T09:01:32;5.30;;;1.80;;
43297;SDS011;28892;55.640;37.532;2023-03-01T09:03:59;4.00;;;1.40;;
43297;SDS011;28892;55.640;37.532;2023-03-01T09:06:25;3.17;;;1.88;;
43297;SDS011;28892;55.640;37.532;2023-03-01T09:08:50;3.70;;;1.63;;
43297;SDS011;28892;55.640;37.532;2023-03-01T09:11:17;3.55;;;1.58;;
43297;SDS011;28892;55.640;37.532;2023-03-01T09:13:46;3.10;;;1.60;;
43297;SDS011;28892;55.640;37.532;2023-03-01T09:16:13;3.60;;;1.90;;
43297;SDS011;28892;55.640;37.532;2023-03-01T09:18:43;3.85;;;1.75;;
43297;SDS011;28892;55.640;37.532;2023-03-01T09:21:13;4.22;;;1.92;;
43297;SDS011;28892;55.640;37.532;2023-03-01T09:23:41;4.25;;;1.65;;
43297;SDS011;28892;55.640;37.532;2023-03-01T09:26:09;5.32;;;1.70;;
43297;SDS011;28892;55.640;37.532;2023-03-01T09:28:37;7.03;;;2.60;;
43297;SDS011;28892;55.640;37.532;2023-03-01T09:31:03;4.20;;;2.55;;
43297;SDS011;28892;55.640;37.532;2023-03-01T09:33:30;5.13;;;2.03;;
43297;SDS011;28892;55.640;37.532;2023-03-01T09:36:00;3.40;;;1.80;;
43297;SDS011;28892;55.640;37.532;2023-03-01T09:38:27;5.35;;;1.80;;
43297;SDS011;28892;55.640;37.532;2023-03-01T09:40:56;3.15;;;1.80;;
43297;SDS011;28892;55.640;37.532;2023-03-01T09:46:07;4.28;;;1.70;;
43297;SDS011;28892;55.640;37.532;2023-03-01T09:48:48;4.38;;;1.88;;
43297;SDS011;28892;55.640;37.532;2023-03-01T09:51:27;4.25;;;1.42;;
43297;SDS011;28892;55.640;37.532;2023-03-01T09:53:58;3.72;;;1.90;;
43297;SDS011;28892;55.640;37.532;2023-03-01T09:56:36;4.57;;;1.60;;
43297;SDS011;28892;55.640;37.532;2023-03-01T10:01:55;2.92;;;1.40;;
43297;SDS011;28892;55.640;37.532;2023-03-01T10:11:02;2.78;;;1.30;;
43297;SDS011;28892;55.640;37.532;2023-03-01T10:13:33;3.55;;;1.60;;
43297;SDS011;28892;55.640;37.532;2023-03-01T10:18:43;2.20;;;1.30;;
43297;SDS011;28892;55.640;37.532;2023-03-01T10:24:35;3.50;;;1.50;;
43297;SDS011;28892;55.640;37.532;2023-03-01T10:27:04;2.47;;;1.33;;
43297;SDS011;28892;55.640;37.532;2023-03-01T10:32:18;4.32;;;1.55;;
43297;SDS011;28892;55.640;37.532;2023-03-01T10:34:44;3.05;;;1.27;;
43297;SDS011;28892;55.640;37.532;2023-03-01T10:37:14;1.97;;;1.10;;
43297;SDS011;28892;55.640;37.532;2023-03-01T10:39:55;3.58;;;1.40;;
43297;SDS011;28892;55.640;37.532;2023-03-01T10:42:28;4.55;;;1.50;;
43297;SDS011;28892;55.640;37.532;2023-03-01T10:45:14;3.83;;;1.37;;
43297;SDS011;28892;55.640;37.532;2023-03-01T10:48:06;2.53;;;1.30;;
43297;SDS011;28892;55.640;37.532;2023-03-01T10:50:34;3.17;;;1.30;;
43297;SDS011;28892;55.640;37.532;2023-03-01T10:53:02;1.70;;;1.23;;
43297;SDS011;28892;55.640;37.532;2023-03-01T10:55:31;4.90;;;1.67;;
43297;SDS011;28892;55.640;37.532;2023-03-01T10:58:20;2.67;;;1.23;;
43297;SDS011;28892;55.640;37.532;2023-03-01T11:04:30;4.33;;;1.40;;
43297;SDS011;28892;55.640;37.532;2023-03-01T11:06:46;2.93;;;1.40;;
43297;SDS011;28892;55.640;37.532;2023-03-01T11:09:24;4.13;;;1.30;;
43297;SDS011;28892;55.640;37.532;2023-03-01T11:11:57;4.10;;;1.30;;
43297;SDS011;28892;55.640;37.532;2023-03-01T11:14:27;2.50;;;1.50;;
43297;SDS011;28892;55.640;37.532;2023-03-01T11:17:11;3.10;;;1.50;;
43297;SDS011;28892;55.640;37.532;2023-03-01T11:19:44;3.00;;;1.80;;
43297;SDS011;28892;55.640;37.532;2023-03-01T11:23:18;3.53;;;1.60;;
43297;SDS011;28892;55.640;37.532;2023-03-01T11:25:47;1.77;;;1.20;;
43297;SDS011;28892;55.640;37.532;2023-03-01T11:28:22;3.10;;;1.20;;
43297;SDS011;28892;55.640;37.532;2023-03-01T11:30:51;4.33;;;1.10;;
43297;SDS011;28892;55.640;37.532;2023-03-01T11:33:37;3.45;;;1.50;;
43297;SDS011;28892;55.640;37.532;2023-03-01T11:38:55;2.43;;;1.43;;
43297;SDS011;28892;55.640;37.532;2023-03-01T11:41:25;3.85;;;1.58;;
43297;SDS011;28892;55.640;37.532;2023-03-01T11:43:59;3.58;;;1.50;;
43297;SDS011;28892;55.640;37.532;2023-03-01T11:58:05;4.70;;;1.73;;
43297;SDS011;28892;55.640;37.532;2023-03-01T12:17:57;3.67;;;1.20;;
43297;SDS011;28892;55.640;37.532;2023-03-01T12:20:53;2.87;;;1.77;;
43297;SDS011;28892;55.640;37.532;2023-03-01T12:29:07;4.33;;;2.00;;
43297;SDS011;28892;55.640;37.532;2023-03-01T12:43:05;1.90;;;1.40;;
43297;SDS011;28892;55.640;37.532;2023-03-01T12:45:45;2.50;;;1.27;;
43297;SDS011;28892;55.640;37.532;2023-03-01T12:51:01;3.87;;;1.40;;
43297;SDS011;28892;55.640;37.532;2023-03-01T12:53:32;2.37;;;1.37;;
43297;SDS011;28892;55.640;37.532;2023-03-01T12:56:08;3.67;;;1.20;;
43297;SDS011;28892;55.640;37.532;2023-03-01T12:58:57;1.73;;;1.10;;
43297;SDS011;28892;55.640;37.532;2023-03-01T13:10:49;2.17;;;1.13;;
43297;SDS011;28892;55.640;37.532;2023-03-01T13:13:28;5.93;;;1.43;;
43297;SDS011;28892;55.640;37.532;2023-03-01T13:16:02;3.53;;;1.27;;
43297;SDS011;28892;55.640;37.532;2023-03-01T13:19:08;2.75;;;0.90;;
43297;SDS011;28892;55.640;37.532;2023-03-01T13:21:44;3.40;;;1.20;;
43297;SDS011;28892;55.640;37.532;2023-03-01T13:24:24;1.83;;;1.00;;
43297;SDS011;28892;55.640;37.532;2023-03-01T13:32:21;4.70;;;1.47;;
43297;SDS011;28892;55.640;37.532;2023-03-01T13:37:33;2.20;;;1.20;;
43297;SDS011;28892;55.640;37.532;2023-03-01T13:40:03;2.00;;;1.27;;
43297;SDS011;28892;55.640;37.532;2023-03-01T13:42:50;1.80;;;1.20;;
43297;SDS011;28892;55.640;37.532;2023-03-01T13:45:38;6.20;;;1.57;;
43297;SDS011;28892;55.640;37.532;2023-03-01T13:48:10;1.63;;;0.90;;
43297;SDS011;28892;55.640;37.532;2023-03-01T13:50:51;2.30;;;1.50;;
43297;SDS011;28892;55.640;37.532;2023-03-01T13:53:21;1.83;;;1.30;;
43297;SDS011;28892;55.640;37.532;2023-03-01T13:58:50;2.53;;;1.20;;
43297;SDS011;28892;55.640;37.532;2023-03-01T14:03:55;2.70;;;1.03;;
43297;SDS011;28892;55.640;37.532;2023-03-01T14:06:26;1.83;;;1.30;;
43297;SDS011;28892;55.640;37.532;2023-03-01T14:14:22;7.00;;;1.77;;
43297;SDS011;28892;55.640;37.532;2023-03-01T14:19:26;2.73;;;1.00;;
43297;SDS011;28892;55.640;37.532;2023-03-01T14:22:02;1.50;;;0.97;;
43297;SDS011;28892;55.640;37.532;2023-03-01T14:24:40;1.30;;;1.20;;
43297;SDS011;28892;55.640;37.532;2023-03-01T14:27:12;3.83;;;1.10;;
43297;SDS011;28892;55.640;37.532;2023-03-01T14:29:39;2.40;;;1.20;;
43297;SDS011;28892;55.640;37.532;2023-03-01T14:32:10;1.13;;;0.97;;
43297;SDS011;28892;55.640;37.532;2023-03-01T14:34:47;2.27;;;1.20;;
43297;SDS011;28892;55.640;37.532;2023-03-01T14:37:33;4.63;;;1.20;;
43297;SDS011;28892;55.640;37.532;2023-03-01T14:40:00;2.10;;;0.97;;
43297;SDS011;28892;55.640;37.532;2023-03-01T14:42:34;4.50;;;1.50;;
43297;SDS011;28892;55.640;37.532;2023-03-01T14:45:31;2.92;;;1.10;;
43297;SDS011;28892;55.640;37.532;2023-03-01T14:48:08;2.20;;;1.20;;
43297;SDS011;28892;55.640;37.532;2023-03-01T14:50:40;2.37;;;1.30;;
43297;SDS011;28892;55.640;37.532;2023-03-01T15:01:02;4.33;;;2.33;;
43297;SDS011;28892;55.640;37.532;2023-03-01T15:03:52;2.60;;;1.43;;
43297;SDS011;28892;55.640;37.532;2023-03-01T15:06:42;2.57;;;1.23;;
43297;SDS011;28892;55.640;37.532;2023-03-01T15:12:22;3.00;;;1.57;;
43297;SDS011;28892;55.640;37.532;2023-03-01T15:15:18;4.50;;;1.50;;
43297;SDS011;28892;55.640;37.532;2023-03-01T15:18:03;3.23;;;1.37;;
43297;SDS011;28892;55.640;37.532;2023-03-01T15:20:53;2.43;;;1.20;;
43297;SDS011;28892;55.640;37.532;2023-03-01T15:23:37;1.93;;;1.30;;
43297;SDS011;28892;55.640;37.532;2023-03-01T15:27:02;2.80;;;1.27;;
43297;SDS011;28892;55.640;37.532;2023-03-01T15:37:01;2.20;;;1.10;;
43297;SDS011;28892;55.640;37.532;2023-03-01T15:42:58;2.17;;;1.40;;
43297;SDS011;28892;55.640;37.532;2023-03-01T15:45:29;2.53;;;1.60;;
43297;SDS011;28892;55.640;37.532;2023-03-01T15:48:13;1.80;;;1.33;;
43297;SDS011;28892;55.640;37.532;2023-03-01T15:50:58;1.93;;;1.30;;
43297;SDS011;28892;55.640;37.532;2023-03-01T15:53:29;5.63;;;1.70;;
43297;SDS011;28892;55.640;37.532;2023-03-01T15:56:02;4.37;;;1.30;;
43297;SDS011;28892;55.640;37.532;2023-03-01T15:58:42;2.35;;;1.23;;
43297;SDS011;28892;55.640;37.532;2023-03-01T16:01:19;1.67;;;1.20;;
43297;SDS011;28892;55.640;37.532;2023-03-01T16:04:28;2.00;;;1.00;;
43297;SDS011;28892;55.640;37.532;2023-03-01T16:06:53;1.13;;;0.93;;
43297;SDS011;28892;55.640;37.532;2023-03-01T16:09:40;1.03;;;0.90;;
43297;SDS011;28892;55.640;37.532;2023-03-01T16:12:08;2.87;;;1.50;;
43297;SDS011;28892;55.640;37.532;2023-03-01T16:20:29;3.42;;;1.10;;
43297;SDS011;28892;55.640;37.532;2023-03-01T16:25:45;2.60;;;1.53;;
43297;SDS011;28892;55.640;37.532;2023-03-01T16:28:11;0.80;;;0.70;;
43297;SDS011;28892;55.640;37.532;2023-03-01T16:30:39;2.10;;;1.10;;
43297;SDS011;28892;55.640;37.532;2023-03-01T16:33:11;1.83;;;1.00;;
43297;SDS011;28892;55.640;37.532;2023-03-01T16:36:14;3.70;;;1.60;;
43297;SDS011;28892;55.640;37.532;2023-03-01T16:39:16;3.77;;;1.70;;
43297;SDS011;28892;55.640;37.532;2023-03-01T16:44:59;3.40;;;1.40;;
43297;SDS011;28892;55.640;37.532;2023-03-01T16:47:36;3.03;;;1.60;;
43297;SDS011;28892;55.640;37.532;2023-03-01T16:54:50;3.67;;;1.40;;
43297;SDS011;28892;55.640;37.532;2023-03-01T16:57:21;6.00;;;1.57;;
43297;SDS011;28892;55.640;37.532;2023-03-01T16:59:50;3.70;;;1.57;;
43297;SDS011;28892;55.640;37.532;2023-03-01T17:02:23;3.40;;;1.50;;
43297;SDS011;28892;55.640;37.532;2023-03-01T17:07:58;2.67;;;1.30;;
43297;SDS011;28892;55.640;37.532;2023-03-01T17:10:40;4.20;;;1.73;;
43297;SDS011;28892;55.640;37.532;2023-03-01T17:16:13;3.20;;;1.40;;
43297;SDS011;28892;55.640;37.532;2023-03-01T17:18:42;3.87;;;1.77;;
43297;SDS011;28892;55.640;37.532;2023-03-01T17:21:09;3.87;;;1.80;;
43297;SDS011;28892;55.640;37.532;2023-03-01T17:23:36;3.63;;;1.57;;
43297;SDS011;28892;55.640;37.532;2023-03-01T17:26:33;6.50;;;1.97;;
43297;SDS011;28892;55.640;37.532;2023-03-01T17:28:59;3.90;;;1.57;;
43297;SDS011;28892;55.640;37.532;2023-03-01T17:31:25;2.03;;;1.30;;
43297;SDS011;28892;55.640;37.532;2023-03-01T17:33:51;3.37;;;1.20;;
43297;SDS011;28892;55.640;37.532;2023-03-01T17:36:17;3.53;;;1.27;;
43297;SDS011;28892;55.640;37.532;2023-03-01T17:38:44;2.97;;;1.80;;
43297;SDS011;28892;55.640;37.532;2023-03-01T17:41:11;2.20;;;1.23;;